createdAt,value
2018-07-07T00:00:03.330Z,24.50
2018-07-07T00:02:29.926Z,24.54
2018-07-07T00:04:56.573Z,24.58
2018-07-07T00:07:23.206Z,24.56
2018-07-07T00:09:49.845Z,24.60
2018-07-07T00:12:16.487Z,24.57
2018-07-07T00:14:43.124Z,24.60
2018-07-07T00:17:09.790Z,24.57
2018-07-07T00:19:36.398Z,24.55
2018-07-07T00:22:03.032Z,24.61
2018-07-07T00:24:29.666Z,24.62
2018-07-07T00:26:56.295Z,24.58
2018-07-07T00:29:22.925Z,24.60
2018-07-07T00:31:49.572Z,24.58
2018-07-07T00:34:16.200Z,24.62
2018-07-07T00:36:42.904Z,24.59
2018-07-07T00:39:09.539Z,24.63
2018-07-07T00:41:36.169Z,24.59
2018-07-07T00:44:02.814Z,24.64
2018-07-07T00:46:29.447Z,24.64
2018-07-07T00:48:56.162Z,24.60
2018-07-07T00:51:22.765Z,24.65
2018-07-07T00:53:49.417Z,24.63
2018-07-07T00:56:16.063Z,24.65
2018-07-07T00:58:42.700Z,24.64
2018-07-07T01:01:09.340Z,24.68
2018-07-07T01:03:35.973Z,24.67
2018-07-07T01:06:02.656Z,24.66
2018-07-07T01:08:29.287Z,24.70
2018-07-07T01:10:55.971Z,24.66
2018-07-07T01:13:22.651Z,24.64
2018-07-07T01:15:49.298Z,24.65
2018-07-07T01:18:15.981Z,24.67
2018-07-07T01:20:42.596Z,24.63
2018-07-07T01:23:09.240Z,24.67
2018-07-07T01:25:35.889Z,24.62
2018-07-07T01:28:02.532Z,24.71
2018-07-07T01:30:29.199Z,24.71
2018-07-07T01:32:55.875Z,24.68
2018-07-07T01:35:22.525Z,24.62
2018-07-07T01:37:49.207Z,24.69
2018-07-07T01:40:15.809Z,24.66
2018-07-07T01:42:42.448Z,24.65
2018-07-07T01:45:09.091Z,24.68
2018-07-07T01:47:35.720Z,24.66
2018-07-07T01:50:02.412Z,24.69
2018-07-07T01:52:29.049Z,24.68
2018-07-07T01:54:55.681Z,24.65
2018-07-07T01:57:22.318Z,24.68
2018-07-07T01:59:48.960Z,24.68
2018-07-07T02:02:15.608Z,24.66
2018-07-07T02:04:42.324Z,24.66
2018-07-07T02:07:08.958Z,24.70
2018-07-07T02:09:35.587Z,24.70
2018-07-07T02:12:02.236Z,24.66
2018-07-07T02:14:28.956Z,24.66
2018-07-07T02:16:55.568Z,24.67
2018-07-07T02:19:22.204Z,24.68
2018-07-07T02:21:48.888Z,24.69
2018-07-07T02:24:15.533Z,24.69
2018-07-07T02:26:42.185Z,24.67
2018-07-07T02:29:09.268Z,24.69
2018-07-07T02:31:35.913Z,24.65
2018-07-07T02:34:02.554Z,24.68
2018-07-07T02:36:29.182Z,24.65
2018-07-07T02:38:55.826Z,24.67
2018-07-07T02:41:22.467Z,24.68
2018-07-07T02:43:49.113Z,24.68
2018-07-07T02:46:15.795Z,24.64
2018-07-07T02:48:42.445Z,24.66
2018-07-07T02:51:09.069Z,24.65
2018-07-07T02:53:35.704Z,24.68
2018-07-07T02:56:02.342Z,24.67
2018-07-07T02:58:28.978Z,24.64
2018-07-07T03:00:55.765Z,24.67
2018-07-07T03:03:22.462Z,24.67
2018-07-07T03:05:49.045Z,24.67
2018-07-07T03:08:15.726Z,24.64
2018-07-07T03:10:42.370Z,24.65
2018-07-07T03:13:09.054Z,24.65
2018-07-07T03:15:35.726Z,24.63
2018-07-07T03:18:02.459Z,24.65
2018-07-07T03:20:29.140Z,24.65
2018-07-07T03:22:55.774Z,24.68
2018-07-07T03:25:22.417Z,24.67
2018-07-07T03:27:50.463Z,24.66
2018-07-07T03:30:15.733Z,24.66
2018-07-07T03:32:42.390Z,24.68
2018-07-07T03:35:09.020Z,24.63
2018-07-07T03:37:35.660Z,24.74
2018-07-07T03:40:02.296Z,24.70
2018-07-07T03:42:28.979Z,24.68
2018-07-07T03:44:55.616Z,24.73
2018-07-07T03:47:22.288Z,24.74
2018-07-07T03:49:48.926Z,24.68
2018-07-07T03:52:15.565Z,24.70
2018-07-07T03:54:43.526Z,24.75
2018-07-07T03:57:08.889Z,24.78
2018-07-07T03:59:35.576Z,24.77
2018-07-07T04:02:02.214Z,24.80
2018-07-07T04:04:28.879Z,24.78
2018-07-07T04:06:55.484Z,24.81
2018-07-07T04:09:22.164Z,24.82
2018-07-07T04:11:48.833Z,24.81
2018-07-07T04:14:15.563Z,24.98
2018-07-07T04:16:42.196Z,25.15
2018-07-07T04:19:08.846Z,25.16
2018-07-07T04:21:35.480Z,25.08
2018-07-07T04:24:02.164Z,25.04
2018-07-07T04:26:28.802Z,25.01
2018-07-07T04:28:55.453Z,24.97
2018-07-07T04:31:22.090Z,24.93
2018-07-07T04:33:48.738Z,24.97
2018-07-07T04:36:15.423Z,24.88
2018-07-07T04:38:42.104Z,24.85
2018-07-07T04:41:08.704Z,24.75
2018-07-07T04:43:36.719Z,24.77
2018-07-07T04:46:02.099Z,24.78
2018-07-07T04:48:28.654Z,24.82
2018-07-07T04:50:55.313Z,24.78
2018-07-07T04:53:21.941Z,24.80
2018-07-07T04:55:48.581Z,24.82
2018-07-07T04:58:15.246Z,24.85
2018-07-07T05:00:41.859Z,24.90
2018-07-07T05:03:08.502Z,24.95
2018-07-07T05:05:35.178Z,24.91
2018-07-07T05:08:01.788Z,25.01
2018-07-07T05:10:28.432Z,24.99
2018-07-07T05:12:55.082Z,24.96
2018-07-07T05:15:21.728Z,25.00
2018-07-07T05:17:48.387Z,24.98
2018-07-07T05:20:15.035Z,25.00
2018-07-07T05:22:41.687Z,25.09
2018-07-07T05:25:08.360Z,25.13
2018-07-07T05:27:34.964Z,25.13
2018-07-07T05:30:01.618Z,25.13
2018-07-07T05:32:28.297Z,25.12
2018-07-07T05:34:54.938Z,25.09
2018-07-07T05:37:21.641Z,25.06
2018-07-07T05:39:48.251Z,25.08
2018-07-07T05:42:14.892Z,25.02
2018-07-07T05:44:41.577Z,25.04
2018-07-07T05:47:08.206Z,25.04
2018-07-07T05:49:34.852Z,24.98
2018-07-07T05:52:01.492Z,25.02
2018-07-07T05:54:28.168Z,24.96
2018-07-07T05:56:54.805Z,24.97
2018-07-07T05:59:21.546Z,24.92
2018-07-07T06:01:48.173Z,24.90
2018-07-07T06:04:14.856Z,24.87
2018-07-07T06:06:41.510Z,24.87
2018-07-07T06:09:08.136Z,24.86
2018-07-07T06:11:34.774Z,24.82
2018-07-07T06:14:01.413Z,24.83
2018-07-07T06:16:28.099Z,24.82
2018-07-07T06:18:54.735Z,24.84
2018-07-07T06:21:21.373Z,24.88
2018-07-07T06:23:48.107Z,24.86
2018-07-07T06:26:14.750Z,24.93
2018-07-07T06:28:41.424Z,24.88
2018-07-07T06:31:08.057Z,24.86
2018-07-07T06:33:34.692Z,24.85
2018-07-07T06:36:01.342Z,24.85
2018-07-07T06:38:27.984Z,24.80
2018-07-07T06:40:54.672Z,24.83
2018-07-07T06:43:21.362Z,24.82
2018-07-07T06:45:48.012Z,24.81
2018-07-07T06:48:14.690Z,24.86
2018-07-07T06:50:44.379Z,24.77
2018-07-07T06:53:11.030Z,24.82
2018-07-07T06:55:37.759Z,24.77
2018-07-07T06:58:04.390Z,24.83
2018-07-07T07:00:31.031Z,24.81
2018-07-07T07:02:57.669Z,24.77
2018-07-07T07:05:24.344Z,24.71
2018-07-07T07:07:50.983Z,24.77
2018-07-07T07:10:17.624Z,24.77
2018-07-07T07:12:44.326Z,24.74
2018-07-07T07:15:12.958Z,24.75
2018-07-07T07:17:37.575Z,24.71
2018-07-07T07:20:04.223Z,24.72
2018-07-07T07:22:30.867Z,24.75
2018-07-07T07:24:57.500Z,24.72
2018-07-07T07:27:24.131Z,24.81
2018-07-07T07:29:50.779Z,24.81
2018-07-07T07:32:17.425Z,24.83
2018-07-07T07:34:44.079Z,24.80
2018-07-07T07:37:10.762Z,24.82
2018-07-07T07:39:37.459Z,24.84
2018-07-07T07:42:04.097Z,24.84
2018-07-07T07:44:30.740Z,24.79
2018-07-07T07:46:57.382Z,24.83
2018-07-07T07:49:24.016Z,24.84
2018-07-07T07:51:50.661Z,24.90
2018-07-07T07:54:17.336Z,24.91
2018-07-07T07:56:43.930Z,24.90
2018-07-07T07:59:10.563Z,24.92
2018-07-07T08:01:37.236Z,24.93
2018-07-07T08:04:03.864Z,24.92
2018-07-07T08:06:30.501Z,24.91
2018-07-07T08:08:57.130Z,25.01
2018-07-07T08:11:23.768Z,25.00
2018-07-07T08:13:50.406Z,24.94
2018-07-07T08:16:17.052Z,25.02
2018-07-07T08:18:43.690Z,25.05
2018-07-07T08:21:10.497Z,25.05
2018-07-07T08:23:37.134Z,25.05
2018-07-07T08:26:03.769Z,25.09
2018-07-07T08:28:30.464Z,25.13
2018-07-07T08:30:57.070Z,25.10
2018-07-07T08:33:23.778Z,25.17
2018-07-07T08:35:50.414Z,25.16
2018-07-07T08:38:17.085Z,24.81
2018-07-07T08:40:43.694Z,24.56
2018-07-07T08:43:10.339Z,24.59
2018-07-07T08:45:36.974Z,24.76
2018-07-07T08:48:03.652Z,24.89
2018-07-07T08:50:30.345Z,24.96
2018-07-07T08:52:56.976Z,24.98
2018-07-07T08:55:23.634Z,25.09
2018-07-07T08:57:50.297Z,25.07
2018-07-07T09:00:16.985Z,25.15
2018-07-07T09:02:43.633Z,25.10
2018-07-07T09:05:12.257Z,25.14
2018-07-07T09:07:38.937Z,25.08
2018-07-07T09:10:05.569Z,25.10
2018-07-07T09:12:32.207Z,25.04
2018-07-07T09:14:58.847Z,25.01
2018-07-07T09:17:25.488Z,24.95
2018-07-07T09:19:52.154Z,25.00
2018-07-07T09:22:18.793Z,24.97
2018-07-07T09:24:45.395Z,24.93
2018-07-07T09:27:12.034Z,24.93
2018-07-07T09:29:38.709Z,24.83
2018-07-07T09:32:05.361Z,24.86
2018-07-07T09:34:32.008Z,24.77
2018-07-07T09:36:58.682Z,24.75
2018-07-07T09:39:25.329Z,24.80
2018-07-07T09:41:51.958Z,24.76
2018-07-07T09:44:18.594Z,24.75
2018-07-07T09:46:45.273Z,24.67
2018-07-07T09:49:11.941Z,24.68
2018-07-07T09:51:38.581Z,24.68
2018-07-07T09:54:05.177Z,24.71
2018-07-07T09:56:31.853Z,24.62
2018-07-07T09:58:58.485Z,24.74
2018-07-07T10:01:25.172Z,24.76
2018-07-07T10:03:51.796Z,24.68
2018-07-07T10:06:18.470Z,24.72
2018-07-07T10:08:45.119Z,24.67
2018-07-07T10:11:11.811Z,24.65
2018-07-07T10:13:38.444Z,24.65
2018-07-07T10:16:05.268Z,24.73
2018-07-07T10:18:31.863Z,24.72
2018-07-07T10:20:58.568Z,24.75
2018-07-07T10:23:25.214Z,24.73
2018-07-07T10:25:51.925Z,24.68
2018-07-07T10:28:18.573Z,24.76
2018-07-07T10:30:45.208Z,24.63
2018-07-07T10:33:11.904Z,24.66
2018-07-07T10:35:38.544Z,24.67
2018-07-07T10:38:05.363Z,24.67
2018-07-07T10:40:32.486Z,24.64
2018-07-07T10:42:59.088Z,24.45
2018-07-07T10:45:25.807Z,24.44
2018-07-07T10:47:52.362Z,24.35
2018-07-07T10:50:19.133Z,24.34
2018-07-07T10:52:45.772Z,24.28
2018-07-07T10:55:12.415Z,24.17
2018-07-07T10:57:39.066Z,24.27
2018-07-07T11:00:05.700Z,24.38
2018-07-07T11:02:32.399Z,24.56
2018-07-07T11:04:59.012Z,24.61
2018-07-07T11:07:25.992Z,24.65
2018-07-07T11:09:52.649Z,24.68
2018-07-07T11:12:19.627Z,24.76
2018-07-07T11:14:46.287Z,24.75
2018-07-07T11:17:12.926Z,24.73
2018-07-07T11:19:39.571Z,24.76
2018-07-07T11:22:06.209Z,24.77
2018-07-07T11:24:32.886Z,24.80
2018-07-07T11:26:59.607Z,24.85
2018-07-07T11:29:26.214Z,24.87
2018-07-07T11:31:52.863Z,24.94
2018-07-07T11:34:19.500Z,24.99
2018-07-07T11:36:46.425Z,25.04
2018-07-07T11:39:12.881Z,25.02
2018-07-07T11:41:39.565Z,24.99
2018-07-07T11:44:06.208Z,24.98
2018-07-07T11:46:32.831Z,24.99
2018-07-07T11:48:59.473Z,25.03
2018-07-07T11:51:26.134Z,25.07
2018-07-07T11:53:52.747Z,25.15
2018-07-07T11:56:19.451Z,25.09
2018-07-07T11:58:46.073Z,25.03
2018-07-07T12:01:12.703Z,24.93
2018-07-07T12:03:39.353Z,24.73
2018-07-07T12:06:06.043Z,24.65
2018-07-07T12:08:32.715Z,24.62
2018-07-07T12:10:59.303Z,24.54
2018-07-07T12:13:25.950Z,24.53
2018-07-07T12:15:52.589Z,24.45
2018-07-07T12:18:19.279Z,24.44
2018-07-07T12:20:45.955Z,24.38
2018-07-07T12:23:12.637Z,24.33
2018-07-07T12:25:39.336Z,24.33
2018-07-07T12:28:05.969Z,24.38
2018-07-07T12:30:32.607Z,24.33
2018-07-07T12:32:59.257Z,24.29
2018-07-07T12:35:25.889Z,24.32
2018-07-07T12:37:52.610Z,24.24
2018-07-07T12:40:19.207Z,24.19
2018-07-07T12:42:45.843Z,24.19
2018-07-07T12:45:12.484Z,24.11
2018-07-07T12:47:39.196Z,24.05
2018-07-07T12:50:05.845Z,24.05
2018-07-07T12:52:32.484Z,24.10
2018-07-07T12:54:59.118Z,24.10
2018-07-07T12:57:25.762Z,23.99
2018-07-07T12:59:52.449Z,23.94
2018-07-07T13:02:19.077Z,23.97
2018-07-07T13:04:45.703Z,23.95
2018-07-07T13:07:12.386Z,23.97
2018-07-07T13:09:39.068Z,23.95
2018-07-07T13:12:05.701Z,23.93
2018-07-07T13:14:32.392Z,23.94
2018-07-07T13:16:59.032Z,23.86
2018-07-07T13:19:25.783Z,23.90
2018-07-07T13:21:52.437Z,23.97
2018-07-07T13:24:19.079Z,23.91
2018-07-07T13:26:45.769Z,23.95
2018-07-07T13:29:12.421Z,24.01
2018-07-07T13:31:39.095Z,24.17
2018-07-07T13:34:05.729Z,24.15
2018-07-07T13:36:32.400Z,24.21
2018-07-07T13:38:59.073Z,24.35
2018-07-07T13:41:25.711Z,24.45
2018-07-07T13:43:52.407Z,24.36
2018-07-07T13:46:19.119Z,24.28
2018-07-07T13:48:45.753Z,24.32
2018-07-07T13:51:12.395Z,24.43
2018-07-07T13:53:39.179Z,24.59
2018-07-07T13:56:05.814Z,24.58
2018-07-07T13:58:32.461Z,24.68
2018-07-07T14:00:59.135Z,24.59
2018-07-07T14:03:25.780Z,24.76
2018-07-07T14:05:52.491Z,24.95
2018-07-07T14:08:19.088Z,25.07
2018-07-07T14:10:45.737Z,24.92
2018-07-07T14:13:12.412Z,24.91
2018-07-07T14:15:39.051Z,24.81
2018-07-07T14:18:05.717Z,24.82
2018-07-07T14:20:32.374Z,24.91
2018-07-07T14:22:59.061Z,25.06
2018-07-07T14:25:25.701Z,25.06
2018-07-07T14:27:52.379Z,24.94
2018-07-07T14:30:20.356Z,24.80
2018-07-07T14:32:45.663Z,24.68
2018-07-07T14:35:12.384Z,24.66
2018-07-07T14:37:38.989Z,24.66
2018-07-07T14:40:05.682Z,24.57
2018-07-07T14:42:32.315Z,24.55
2018-07-07T14:44:59.012Z,24.52
2018-07-07T14:47:25.692Z,24.56
2018-07-07T14:49:52.325Z,24.48
2018-07-07T14:52:19.052Z,24.38
2018-07-07T14:54:45.658Z,24.47
2018-07-07T14:57:12.342Z,24.51
2018-07-07T14:59:39.011Z,24.47
2018-07-07T15:02:05.652Z,24.40
2018-07-07T15:04:32.329Z,24.30
2018-07-07T15:06:58.967Z,24.31
2018-07-07T15:09:27.777Z,24.35
2018-07-07T15:11:52.289Z,24.35
2018-07-07T15:14:18.923Z,24.34
2018-07-07T15:16:45.611Z,24.24
2018-07-07T15:19:12.286Z,24.28
2018-07-07T15:21:39.029Z,24.28
2018-07-07T15:24:05.671Z,24.28
2018-07-07T15:26:32.300Z,24.25
2018-07-07T15:28:58.998Z,24.20
2018-07-07T15:31:25.656Z,24.15
2018-07-07T15:33:52.339Z,24.10
2018-07-07T15:36:18.968Z,24.12
2018-07-07T15:38:45.657Z,24.11
2018-07-07T15:41:12.291Z,24.05
2018-07-07T15:43:38.925Z,24.04
2018-07-07T15:46:05.574Z,24.05
2018-07-07T15:48:32.211Z,24.13
2018-07-07T15:50:58.896Z,23.99
2018-07-07T15:53:25.538Z,24.01
2018-07-07T15:55:52.170Z,23.92
2018-07-07T15:58:18.821Z,23.94
2018-07-07T16:00:45.507Z,23.92
2018-07-07T16:03:12.212Z,23.93
2018-07-07T16:05:38.841Z,23.85
2018-07-07T16:08:05.526Z,23.84
2018-07-07T16:10:32.164Z,23.84
2018-07-07T16:12:58.835Z,23.84
2018-07-07T16:15:25.547Z,23.80
2018-07-07T16:17:52.158Z,23.70
2018-07-07T16:20:18.861Z,23.81
2018-07-07T16:22:45.461Z,23.68
2018-07-07T16:25:12.196Z,23.74
2018-07-07T16:27:38.840Z,23.63
2018-07-07T16:30:05.524Z,23.80
2018-07-07T16:32:32.163Z,23.78
2018-07-07T16:34:58.840Z,23.72
2018-07-07T16:37:25.496Z,23.67
2018-07-07T16:39:52.144Z,23.63
2018-07-07T16:42:18.777Z,23.67
2018-07-07T16:44:45.452Z,23.59
2018-07-07T16:47:12.078Z,23.65
2018-07-07T16:49:38.763Z,23.52
2018-07-07T16:52:05.400Z,23.54
2018-07-07T16:54:32.072Z,23.47
2018-07-07T16:56:58.777Z,23.48
2018-07-07T16:59:25.409Z,23.41
2018-07-07T17:01:52.043Z,23.47
2018-07-07T17:04:18.726Z,23.46
2018-07-07T17:06:45.411Z,23.45
2018-07-07T17:09:12.099Z,23.40
2018-07-07T17:11:38.785Z,23.36
2018-07-07T17:14:05.388Z,23.37
2018-07-07T17:16:32.096Z,23.28
2018-07-07T17:18:58.739Z,23.32
2018-07-07T17:21:25.368Z,23.34
2018-07-07T17:23:52.009Z,23.29
2018-07-07T17:26:18.637Z,23.40
2018-07-07T17:28:45.281Z,23.60
2018-07-07T17:31:11.924Z,23.71
2018-07-07T17:33:38.557Z,23.81
2018-07-07T17:36:05.194Z,23.87
2018-07-07T17:38:31.837Z,23.91
2018-07-07T17:40:58.476Z,23.98
2018-07-07T17:43:25.120Z,23.98
2018-07-07T17:45:51.767Z,23.97
2018-07-07T17:48:18.400Z,24.00
2018-07-07T17:50:45.052Z,23.98
2018-07-07T17:53:11.708Z,24.00
2018-07-07T17:55:38.336Z,24.06
2018-07-07T17:58:04.964Z,24.07
2018-07-07T18:00:31.609Z,24.05
2018-07-07T18:02:58.257Z,24.10
2018-07-07T18:05:24.902Z,24.09
2018-07-07T18:07:51.591Z,24.10
2018-07-07T18:10:19.623Z,24.12
2018-07-07T18:12:44.873Z,24.11
2018-07-07T18:15:11.544Z,24.08
2018-07-07T18:17:38.147Z,24.15
2018-07-07T18:20:04.786Z,24.09
2018-07-07T18:22:31.440Z,24.15
2018-07-07T18:24:59.375Z,24.15
2018-07-07T18:27:24.708Z,24.10
2018-07-07T18:29:51.391Z,24.12
2018-07-07T18:32:17.991Z,24.14
2018-07-07T18:34:44.653Z,24.13
2018-07-07T18:37:11.291Z,24.18
2018-07-07T18:39:37.968Z,24.13
2018-07-07T18:42:04.572Z,24.18
2018-07-07T18:44:31.220Z,24.15
2018-07-07T18:46:59.228Z,24.21
2018-07-07T18:49:24.488Z,24.17
2018-07-07T18:51:51.127Z,24.20
2018-07-07T18:54:17.769Z,24.22
2018-07-07T18:56:44.447Z,24.23
2018-07-07T18:59:11.043Z,24.20
2018-07-07T19:01:37.681Z,24.19
2018-07-07T19:04:04.314Z,24.21
2018-07-07T19:06:30.962Z,24.23
2018-07-07T19:08:57.588Z,24.23
2018-07-07T19:11:24.222Z,24.19
2018-07-07T19:13:50.866Z,24.24
2018-07-07T19:16:17.502Z,24.22
2018-07-07T19:18:44.176Z,24.22
2018-07-07T19:21:10.779Z,24.24
2018-07-07T19:23:37.435Z,24.27
2018-07-07T19:26:04.071Z,24.26
2018-07-07T19:28:30.754Z,24.22
2018-07-07T19:30:57.457Z,24.21
2018-07-07T19:33:24.095Z,24.22
2018-07-07T19:35:50.727Z,24.21
2018-07-07T19:38:17.387Z,24.24
2018-07-07T19:40:44.039Z,24.23
2018-07-07T19:43:10.698Z,24.23
2018-07-07T19:45:37.381Z,24.23
2018-07-07T19:48:04.025Z,24.24
2018-07-07T19:50:30.664Z,24.24
2018-07-07T19:52:57.302Z,24.26
2018-07-07T19:55:23.958Z,24.26
2018-07-07T19:57:50.591Z,24.25
2018-07-07T20:00:17.268Z,24.26
2018-07-07T20:02:43.869Z,24.25
2018-07-07T20:05:10.502Z,24.25
2018-07-07T20:07:37.132Z,24.29
2018-07-07T20:10:03.760Z,24.27
2018-07-07T20:12:30.407Z,24.26
2018-07-07T20:14:57.061Z,24.18
2018-07-07T20:17:23.696Z,24.25
2018-07-07T20:19:50.331Z,24.26
2018-07-07T20:22:16.966Z,24.24
2018-07-07T20:24:43.614Z,24.26
2018-07-07T20:27:10.243Z,24.24
2018-07-07T20:29:36.875Z,24.23
2018-07-07T20:32:03.526Z,24.25
2018-07-07T20:34:30.212Z,24.24
2018-07-07T20:36:56.817Z,24.24
2018-07-07T20:39:23.448Z,24.22
2018-07-07T20:41:50.090Z,24.21
2018-07-07T20:44:16.733Z,24.23
2018-07-07T20:46:43.380Z,24.27
2018-07-07T20:49:10.023Z,24.24
2018-07-07T20:51:36.661Z,24.25
2018-07-07T20:54:03.299Z,24.20
2018-07-07T20:56:30.033Z,24.23
2018-07-07T20:58:56.614Z,24.21
2018-07-07T21:01:23.268Z,24.21
2018-07-07T21:03:49.916Z,24.24
2018-07-07T21:06:16.549Z,24.23
2018-07-07T21:08:43.183Z,24.20
2018-07-07T21:11:10.032Z,24.24
2018-07-07T21:13:36.521Z,24.21
2018-07-07T21:16:03.154Z,24.23
2018-07-07T21:18:29.857Z,24.23
2018-07-07T21:20:56.499Z,24.20
2018-07-07T21:23:23.164Z,24.22
2018-07-07T21:25:49.767Z,24.18
2018-07-07T21:28:16.402Z,24.22
2018-07-07T21:30:43.036Z,24.18
2018-07-07T21:33:09.681Z,24.18
2018-07-07T21:35:36.367Z,24.19
2018-07-07T21:38:02.983Z,24.18
2018-07-07T21:40:29.624Z,24.18
2018-07-07T21:42:56.270Z,24.22
2018-07-07T21:45:22.907Z,24.18
2018-07-07T21:47:49.538Z,24.21
2018-07-07T21:50:16.176Z,24.20
2018-07-07T21:52:42.804Z,24.21
2018-07-07T21:55:09.442Z,24.19
2018-07-07T21:57:36.083Z,24.19
2018-07-07T22:00:02.722Z,24.18
2018-07-07T22:02:29.354Z,24.17
2018-07-07T22:04:56.008Z,24.15
2018-07-07T22:07:22.637Z,24.18
2018-07-07T22:09:49.277Z,24.17
2018-07-07T22:12:15.997Z,24.17
2018-07-07T22:14:42.643Z,24.16
2018-07-07T22:17:09.284Z,24.16
2018-07-07T22:19:35.940Z,24.17
2018-07-07T22:22:02.567Z,24.13
2018-07-07T22:24:29.224Z,24.14
2018-07-07T22:26:55.918Z,24.17
2018-07-07T22:29:22.525Z,24.17
2018-07-07T22:31:49.167Z,24.15
2018-07-07T22:34:17.070Z,24.14
2018-07-07T22:36:42.451Z,24.13
2018-07-07T22:39:09.082Z,24.16
2018-07-07T22:41:35.717Z,24.14
2018-07-07T22:44:02.358Z,24.14
2018-07-07T22:46:28.997Z,24.15
2018-07-07T22:48:55.719Z,24.15
2018-07-07T22:51:22.370Z,24.16
2018-07-07T22:53:49.007Z,24.16
2018-07-07T22:56:15.655Z,24.13
2018-07-07T22:58:42.288Z,24.10
2018-07-07T23:01:08.929Z,24.10
2018-07-07T23:03:35.557Z,24.15
2018-07-07T23:06:02.246Z,24.10
2018-07-07T23:08:28.856Z,24.09
2018-07-07T23:10:55.497Z,24.10
2018-07-07T23:13:22.148Z,24.11
2018-07-07T23:15:48.791Z,24.08
2018-07-07T23:18:15.430Z,24.10
2018-07-07T23:20:45.033Z,24.08
2018-07-07T23:23:11.716Z,24.08
2018-07-07T23:25:38.371Z,24.07
2018-07-07T23:28:04.984Z,24.07
2018-07-07T23:30:31.622Z,24.07
2018-07-07T23:32:58.269Z,24.05
2018-07-07T23:35:24.903Z,24.01
2018-07-07T23:37:51.539Z,24.10
2018-07-07T23:40:18.175Z,24.07
2018-07-07T23:42:44.821Z,24.08
2018-07-07T23:45:11.467Z,24.09
2018-07-07T23:47:38.147Z,24.05
2018-07-07T23:50:04.784Z,24.04
2018-07-07T23:52:31.462Z,24.06
2018-07-07T23:54:58.096Z,24.04
2018-07-07T23:57:24.732Z,24.02
2018-07-07T23:59:51.382Z,24.03
